createdAt,value
2023-03-03T00:00:45.789Z,0.00
2023-03-03T00:01:45.787Z,0.00
2023-03-03T00:02:47.412Z,0.00
2023-03-03T00:03:45.822Z,0.00
2023-03-03T00:04:45.772Z,0.00
2023-03-03T00:05:45.773Z,0.00
2023-03-03T00:06:45.729Z,0.00
2023-03-03T00:07:46.955Z,0.00
2023-03-03T00:08:45.728Z,0.00
2023-03-03T00:09:45.702Z,0.00
2023-03-03T00:10:45.711Z,0.00
2023-03-03T00:11:45.704Z,0.00
2023-03-03T00:12:45.672Z,0.00
2023-03-03T00:13:45.691Z,0.00
2023-03-03T00:14:45.653Z,0.00
2023-03-03T00:15:45.659Z,0.00
2023-03-03T00:16:45.629Z,0.00
2023-03-03T00:17:45.619Z,0.00
2023-03-03T00:18:45.598Z,0.00
2023-03-03T00:19:46.570Z,0.00
2023-03-03T00:20:45.586Z,0.00
2023-03-03T00:21:45.584Z,0.00
2023-03-03T00:22:45.547Z,0.00
2023-03-03T00:23:45.541Z,0.00
2023-03-03T00:24:45.512Z,0.00
2023-03-03T00:25:45.577Z,0.00
2023-03-03T00:26:45.527Z,0.00
2023-03-03T00:27:45.503Z,0.00
2023-03-03T00:28:46.443Z,0.00
2023-03-03T00:29:45.487Z,0.00
2023-03-03T00:30:45.465Z,0.00
2023-03-03T00:31:46.431Z,0.00
2023-03-03T00:32:45.440Z,0.00
2023-03-03T00:33:45.445Z,0.00
2023-03-03T00:34:45.412Z,0.00
2023-03-03T00:35:45.430Z,0.00
2023-03-03T00:36:45.433Z,0.00
2023-03-03T00:37:45.392Z,0.00
2023-03-03T00:38:45.375Z,0.00
2023-03-03T00:39:46.325Z,0.00
2023-03-03T00:40:45.354Z,0.00
2023-03-03T00:41:45.390Z,0.00
2023-03-03T00:42:45.335Z,0.00
2023-03-03T00:43:45.337Z,0.00
2023-03-03T00:44:45.327Z,0.00
2023-03-03T00:45:45.326Z,0.00
2023-03-03T00:46:45.298Z,0.00
2023-03-03T00:47:45.284Z,0.00
2023-03-03T00:48:45.270Z,0.00
2023-03-03T00:49:45.278Z,0.00
2023-03-03T00:50:45.274Z,0.00
2023-03-03T00:51:45.303Z,0.00
2023-03-03T00:52:45.227Z,0.00
2023-03-03T00:53:45.230Z,0.00
2023-03-03T00:54:45.202Z,0.00
2023-03-03T00:55:45.206Z,0.00
2023-03-03T00:56:45.179Z,0.00
2023-03-03T00:57:45.191Z,0.00
2023-03-03T00:58:46.169Z,0.00
2023-03-03T00:59:45.160Z,0.00
2023-03-03T01:00:45.162Z,0.00
2023-03-03T01:01:45.165Z,0.00
2023-03-03T01:02:45.123Z,0.00
2023-03-03T01:03:45.951Z,0.00
2023-03-03T01:04:45.090Z,0.00
2023-03-03T01:05:45.092Z,0.00
2023-03-03T01:06:45.167Z,0.00
2023-03-03T01:07:45.094Z,0.00
2023-03-03T01:08:45.054Z,0.00
2023-03-03T01:09:45.040Z,0.00
2023-03-03T01:10:45.034Z,0.00
2023-03-03T01:11:45.010Z,0.00
2023-03-03T01:12:45.030Z,0.00
2023-03-03T01:13:45.031Z,0.00
2023-03-03T01:14:44.984Z,0.00
2023-03-03T01:15:45.008Z,0.00
2023-03-03T01:16:44.967Z,0.00
2023-03-03T01:17:44.936Z,0.00
2023-03-03T01:18:44.983Z,0.00
2023-03-03T01:19:44.962Z,0.00
2023-03-03T01:20:44.936Z,0.00
2023-03-03T01:21:44.903Z,0.00
2023-03-03T01:22:44.996Z,0.00
2023-03-03T01:23:44.879Z,0.00
2023-03-03T01:24:44.895Z,0.00
2023-03-03T01:25:44.885Z,0.00
2023-03-03T01:26:44.848Z,0.00
2023-03-03T01:27:44.852Z,0.00
2023-03-03T01:28:44.864Z,0.00
2023-03-03T01:29:44.823Z,0.00
2023-03-03T01:30:44.804Z,0.00
2023-03-03T01:31:44.817Z,0.00
2023-03-03T01:32:44.775Z,0.00
2023-03-03T01:33:44.788Z,0.00
2023-03-03T01:34:45.744Z,0.00
2023-03-03T01:35:44.773Z,0.00
2023-03-03T01:36:44.734Z,0.00
2023-03-03T01:37:44.824Z,0.00
2023-03-03T01:38:44.711Z,0.00
2023-03-03T01:39:44.739Z,0.00
2023-03-03T01:40:44.714Z,0.00
2023-03-03T01:41:44.682Z,0.00
2023-03-03T01:42:44.656Z,0.00
2023-03-03T01:43:44.696Z,0.00
2023-03-03T01:44:44.665Z,0.00
2023-03-03T01:45:44.668Z,0.00
2023-03-03T01:46:44.705Z,0.00
2023-03-03T01:47:44.620Z,0.00
2023-03-03T01:48:44.635Z,0.00
2023-03-03T01:49:45.451Z,0.00
2023-03-03T01:50:44.577Z,0.00
2023-03-03T01:51:44.578Z,0.00
2023-03-03T01:52:44.556Z,0.00
2023-03-03T01:53:44.555Z,0.00
2023-03-03T01:54:46.071Z,0.00
2023-03-03T01:55:44.585Z,0.00
2023-03-03T01:56:44.549Z,0.00
2023-03-03T01:57:44.540Z,0.00
2023-03-03T01:58:44.496Z,0.00
2023-03-03T01:59:44.530Z,0.00
2023-03-03T02:00:44.555Z,0.00
2023-03-03T02:01:44.561Z,0.00
2023-03-03T02:02:44.479Z,0.00
2023-03-03T02:03:44.473Z,0.00
2023-03-03T02:04:44.418Z,0.00
2023-03-03T02:05:44.509Z,0.00
2023-03-03T02:06:44.401Z,0.00
2023-03-03T02:07:44.417Z,0.00
2023-03-03T02:08:44.499Z,0.00
2023-03-03T02:09:44.374Z,0.00
2023-03-03T02:10:44.436Z,0.00
2023-03-03T02:11:44.348Z,0.00
2023-03-03T02:12:44.341Z,0.00
2023-03-03T02:13:44.532Z,0.00
2023-03-03T02:14:44.318Z,0.00
2023-03-03T02:15:44.317Z,0.00
2023-03-03T02:16:44.295Z,0.00
2023-03-03T02:17:44.284Z,0.00
2023-03-03T02:18:44.302Z,0.00
2023-03-03T02:19:44.265Z,0.00
2023-03-03T02:20:44.258Z,0.00
2023-03-03T02:21:45.216Z,0.00
2023-03-03T02:22:44.237Z,0.00
2023-03-03T02:23:44.228Z,0.00
2023-03-03T02:24:44.197Z,0.00
2023-03-03T02:25:44.208Z,0.00
2023-03-03T02:26:44.190Z,0.00
2023-03-03T02:27:44.209Z,0.00
2023-03-03T02:28:44.197Z,0.00
2023-03-03T02:29:44.142Z,0.00
2023-03-03T02:30:44.171Z,0.00
2023-03-03T02:31:44.210Z,0.00
2023-03-03T02:32:44.128Z,0.00
2023-03-03T02:33:44.153Z,0.00
2023-03-03T02:34:44.098Z,0.00
2023-03-03T02:35:44.122Z,0.00
2023-03-03T02:36:44.086Z,0.00
2023-03-03T02:37:44.071Z,0.00
2023-03-03T02:38:44.067Z,0.00
2023-03-03T02:39:44.086Z,0.00
2023-03-03T02:40:44.036Z,0.00
2023-03-03T02:41:44.033Z,0.00
2023-03-03T02:42:44.022Z,0.00
2023-03-03T02:43:44.004Z,0.00
2023-03-03T02:44:44.045Z,0.00
2023-03-03T02:45:45.096Z,0.00
2023-03-03T02:46:43.977Z,0.00
2023-03-03T02:47:45.399Z,0.00
2023-03-03T02:48:43.946Z,0.00
2023-03-03T02:49:43.948Z,0.00
2023-03-03T02:50:43.957Z,0.00
2023-03-03T02:51:43.914Z,0.00
2023-03-03T02:52:43.890Z,0.00
2023-03-03T02:53:43.882Z,0.00
2023-03-03T02:54:43.913Z,0.00
2023-03-03T02:55:43.858Z,0.00
2023-03-03T02:56:43.854Z,0.00
2023-03-03T02:57:43.832Z,0.00
2023-03-03T02:58:44.296Z,0.00
2023-03-03T02:59:43.823Z,0.00
2023-03-03T03:00:43.919Z,0.00
2023-03-03T03:01:43.789Z,0.00
2023-03-03T03:02:43.793Z,0.00
2023-03-03T03:03:43.775Z,0.00
2023-03-03T03:04:43.781Z,0.00
2023-03-03T03:05:43.749Z,0.00
2023-03-03T03:06:43.770Z,0.00
2023-03-03T03:07:43.729Z,0.00
2023-03-03T03:08:43.732Z,0.00
2023-03-03T03:09:44.680Z,0.00
2023-03-03T03:10:43.705Z,0.00
2023-03-03T03:11:43.715Z,0.00
2023-03-03T03:12:43.689Z,0.00
2023-03-03T03:13:43.690Z,0.00
2023-03-03T03:14:43.692Z,0.00
2023-03-03T03:15:44.578Z,0.00
2023-03-03T03:16:43.694Z,0.00
2023-03-03T03:17:43.655Z,0.00
2023-03-03T03:18:43.955Z,0.00
2023-03-03T03:19:43.630Z,0.00
2023-03-03T03:20:43.587Z,0.00
2023-03-03T03:21:43.571Z,0.00
2023-03-03T03:22:43.647Z,0.00
2023-03-03T03:23:43.565Z,0.00
2023-03-03T03:24:43.537Z,0.00
2023-03-03T03:25:43.517Z,0.00
2023-03-03T03:26:43.541Z,0.00
2023-03-03T03:27:43.507Z,0.00
2023-03-03T03:28:43.543Z,0.00
2023-03-03T03:29:43.526Z,0.00
2023-03-03T03:30:43.506Z,0.00
2023-03-03T03:31:44.424Z,0.00
2023-03-03T03:32:43.454Z,0.00
2023-03-03T03:33:43.877Z,0.00
2023-03-03T03:34:43.457Z,0.00
2023-03-03T03:35:44.041Z,0.00
2023-03-03T03:36:44.928Z,0.00
2023-03-03T03:37:43.394Z,0.00
2023-03-03T03:38:43.384Z,0.00
2023-03-03T03:39:43.388Z,0.00
2023-03-03T03:40:43.389Z,0.00
2023-03-03T03:41:43.374Z,0.00
2023-03-03T03:42:43.335Z,0.00
2023-03-03T03:43:43.345Z,0.00
2023-03-03T03:44:43.325Z,0.00
2023-03-03T03:45:43.353Z,0.00
2023-03-03T03:46:43.355Z,0.00
2023-03-03T03:47:44.229Z,0.00
2023-03-03T03:48:43.386Z,0.00
2023-03-03T03:49:43.310Z,0.00
2023-03-03T03:50:43.249Z,0.00
2023-03-03T03:51:43.228Z,0.00
2023-03-03T03:52:43.241Z,0.00
2023-03-03T03:53:43.222Z,0.00
2023-03-03T03:54:43.212Z,0.00
2023-03-03T03:55:43.217Z,0.00
2023-03-03T03:56:43.198Z,0.00
2023-03-03T03:57:43.180Z,0.00
2023-03-03T03:58:43.166Z,0.00
2023-03-03T03:59:43.176Z,0.00
2023-03-03T04:00:43.296Z,0.00
2023-03-03T04:01:43.128Z,0.00
2023-03-03T04:02:43.237Z,0.00
2023-03-03T04:03:43.136Z,0.00
2023-03-03T04:04:43.128Z,0.00
2023-03-03T04:05:43.134Z,0.00
2023-03-03T04:06:43.085Z,0.00
2023-03-03T04:07:44.567Z,0.00
2023-03-03T04:08:48.060Z,0.00
2023-03-03T04:09:43.051Z,0.00
2023-03-03T04:10:43.059Z,0.00
2023-03-03T04:11:43.053Z,0.00
2023-03-03T04:12:43.027Z,0.00
2023-03-03T04:13:43.962Z,0.00
2023-03-03T04:14:43.013Z,0.00
2023-03-03T04:15:43.012Z,0.00
2023-03-03T04:16:43.003Z,0.00
2023-03-03T04:17:42.966Z,0.00
2023-03-03T04:18:44.890Z,0.00
2023-03-03T04:19:42.937Z,0.00
2023-03-03T04:20:42.956Z,0.00
2023-03-03T04:21:42.941Z,0.00
2023-03-03T04:22:42.917Z,0.00
2023-03-03T04:23:42.938Z,0.00
2023-03-03T04:24:42.892Z,0.00
2023-03-03T04:25:43.027Z,0.00
2023-03-03T04:26:42.894Z,0.00
2023-03-03T04:27:42.890Z,0.00
2023-03-03T04:28:42.853Z,0.00
2023-03-03T04:29:42.849Z,0.00
2023-03-03T04:30:42.903Z,0.00
2023-03-03T04:31:42.804Z,0.00
2023-03-03T04:32:43.615Z,0.00
2023-03-03T04:33:42.962Z,0.00
2023-03-03T04:34:44.226Z,0.00
2023-03-03T04:35:42.964Z,0.00
2023-03-03T04:36:42.749Z,0.00
2023-03-03T04:37:42.768Z,0.00
2023-03-03T04:38:43.414Z,0.00
2023-03-03T04:39:42.726Z,0.00
2023-03-03T04:40:42.732Z,0.00
2023-03-03T04:41:42.775Z,0.00
2023-03-03T04:42:43.277Z,0.00
2023-03-03T04:43:42.687Z,0.00
2023-03-03T04:44:42.656Z,0.00
2023-03-03T04:45:44.104Z,0.00
2023-03-03T04:46:42.648Z,0.00
2023-03-03T04:47:42.705Z,0.00
2023-03-03T04:48:42.762Z,0.00
2023-03-03T04:49:42.607Z,0.00
2023-03-03T04:50:42.592Z,0.00
2023-03-03T04:51:42.587Z,0.00
2023-03-03T04:52:42.581Z,0.00
2023-03-03T04:53:42.589Z,0.00
2023-03-03T04:54:42.561Z,0.00
2023-03-03T04:55:42.555Z,0.00
2023-03-03T04:56:43.992Z,0.00
2023-03-03T04:57:42.525Z,0.00
2023-03-03T04:58:43.990Z,0.00
2023-03-03T04:59:42.524Z,0.00
2023-03-03T05:00:42.501Z,0.00
2023-03-03T05:01:42.685Z,0.00
2023-03-03T05:02:43.437Z,0.00
2023-03-03T05:03:44.448Z,0.00
2023-03-03T05:04:42.514Z,0.00
2023-03-03T05:05:43.420Z,0.00
2023-03-03T05:06:42.422Z,0.00
2023-03-03T05:07:42.409Z,0.00
2023-03-03T05:08:42.395Z,0.00
2023-03-03T05:09:42.378Z,0.00
2023-03-03T05:10:42.553Z,0.00
2023-03-03T05:11:42.392Z,0.00
2023-03-03T05:12:42.496Z,0.00
2023-03-03T05:13:42.338Z,0.00
2023-03-03T05:14:42.341Z,0.00
2023-03-03T05:15:43.346Z,0.00
2023-03-03T05:16:42.330Z,0.00
2023-03-03T05:17:42.290Z,0.00
2023-03-03T05:18:42.304Z,0.00
2023-03-03T05:19:42.271Z,0.00
2023-03-03T05:20:42.265Z,0.00
2023-03-03T05:21:42.937Z,0.00
2023-03-03T05:22:42.243Z,0.00
2023-03-03T05:23:42.252Z,0.00
2023-03-03T05:24:42.247Z,0.00
2023-03-03T05:25:42.218Z,0.00
2023-03-03T05:26:42.211Z,0.00
2023-03-03T05:27:42.515Z,0.00
2023-03-03T05:28:42.170Z,0.00
2023-03-03T05:29:42.250Z,0.00
2023-03-03T05:30:43.111Z,0.00
2023-03-03T05:31:44.503Z,0.00
2023-03-03T05:32:42.150Z,0.00
2023-03-03T05:33:42.133Z,0.00
2023-03-03T05:34:42.226Z,0.00
2023-03-03T05:35:42.120Z,0.00
2023-03-03T05:36:42.086Z,0.00
2023-03-03T05:37:42.087Z,0.00
2023-03-03T05:38:42.057Z,0.00
2023-03-03T05:39:42.070Z,0.00
2023-03-03T05:40:42.033Z,0.00
2023-03-03T05:41:42.039Z,0.00
2023-03-03T05:42:42.059Z,0.00
2023-03-03T05:43:41.999Z,0.00
2023-03-03T05:44:42.002Z,0.00
2023-03-03T05:45:41.971Z,0.00
2023-03-03T05:46:42.033Z,0.00
2023-03-03T05:47:41.946Z,0.00
2023-03-03T05:48:42.014Z,0.00
2023-03-03T05:49:41.932Z,0.00
2023-03-03T05:50:41.928Z,0.00
2023-03-03T05:51:41.906Z,0.00
2023-03-03T05:52:41.907Z,0.00
2023-03-03T05:53:41.900Z,4.00
2023-03-03T05:54:46.294Z,4.00
2023-03-03T05:55:41.864Z,0.00
2023-03-03T05:56:41.866Z,0.00
2023-03-03T05:57:41.844Z,4.00
2023-03-03T05:58:41.863Z,4.00
2023-03-03T05:59:43.303Z,4.00
2023-03-03T06:00:41.817Z,4.00
2023-03-03T06:01:41.852Z,4.00
2023-03-03T06:02:41.873Z,4.00
2023-03-03T06:03:41.802Z,4.00
2023-03-03T06:04:41.771Z,8.00
2023-03-03T06:05:41.762Z,8.00
2023-03-03T06:06:41.756Z,8.00
2023-03-03T06:07:41.740Z,8.00
2023-03-03T06:08:41.750Z,12.00
2023-03-03T06:09:41.753Z,12.00
2023-03-03T06:10:41.708Z,16.00
2023-03-03T06:11:41.719Z,20.00
2023-03-03T06:12:41.701Z,20.00
2023-03-03T06:13:41.677Z,24.00
2023-03-03T06:14:41.661Z,24.00
2023-03-03T06:15:41.700Z,28.00
2023-03-03T06:16:41.689Z,32.00
2023-03-03T06:17:41.665Z,36.00
2023-03-03T06:18:41.615Z,36.00
2023-03-03T06:19:41.605Z,36.00
2023-03-03T06:20:41.616Z,40.00
2023-03-03T06:21:41.582Z,40.00
2023-03-03T06:22:41.576Z,40.00
2023-03-03T06:23:41.577Z,44.00
2023-03-03T06:24:41.546Z,44.00
2023-03-03T06:25:41.588Z,48.00
2023-03-03T06:26:41.538Z,52.00
2023-03-03T06:27:41.524Z,56.00
2023-03-03T06:28:41.514Z,56.00
2023-03-03T06:29:41.523Z,68.00
2023-03-03T06:30:41.488Z,72.00
2023-03-03T06:31:41.569Z,76.00
2023-03-03T06:32:41.481Z,80.00
2023-03-03T06:33:41.456Z,92.00
2023-03-03T06:34:41.431Z,104.00
2023-03-03T06:35:41.527Z,108.00
2023-03-03T06:36:42.373Z,100.00
2023-03-03T06:37:41.454Z,112.00
2023-03-03T06:38:41.405Z,120.00
2023-03-03T06:39:41.430Z,120.00
2023-03-03T06:40:42.389Z,136.00
2023-03-03T06:41:41.367Z,144.00
2023-03-03T06:42:41.337Z,144.00
2023-03-03T06:43:41.365Z,148.00
2023-03-03T06:44:41.349Z,164.00
2023-03-03T06:45:41.397Z,160.00
2023-03-03T06:46:41.295Z,168.00
2023-03-03T06:47:41.377Z,164.00
2023-03-03T06:48:41.289Z,192.00
2023-03-03T06:49:41.288Z,196.00
2023-03-03T06:50:41.283Z,208.00
2023-03-03T06:51:41.257Z,244.00
2023-03-03T06:52:41.224Z,252.00
2023-03-03T06:53:41.267Z,240.00
2023-03-03T06:54:41.208Z,296.00
2023-03-03T06:55:41.202Z,292.00
2023-03-03T06:56:41.207Z,292.00
2023-03-03T06:57:41.187Z,300.00
2023-03-03T06:58:41.169Z,304.00
2023-03-03T06:59:41.196Z,384.00
2023-03-03T07:00:41.137Z,408.00
2023-03-03T07:01:41.140Z,348.00
2023-03-03T07:02:41.149Z,356.00
2023-03-03T07:03:41.120Z,320.00
2023-03-03T07:04:41.091Z,344.00
2023-03-03T07:05:41.123Z,372.00
2023-03-03T07:06:41.073Z,356.00
2023-03-03T07:07:41.069Z,368.00
2023-03-03T07:08:41.077Z,412.00
2023-03-03T07:09:41.064Z,456.00
2023-03-03T07:10:41.056Z,464.00
2023-03-03T07:11:41.059Z,472.00
2023-03-03T07:12:41.026Z,488.00
2023-03-03T07:13:41.024Z,472.00
2023-03-03T07:14:40.991Z,460.00
2023-03-03T07:15:40.998Z,472.00
2023-03-03T07:16:41.059Z,496.00
2023-03-03T07:17:40.978Z,524.00
2023-03-03T07:18:40.968Z,504.00
2023-03-03T07:19:40.948Z,512.00
2023-03-03T07:20:40.941Z,568.00
2023-03-03T07:21:40.960Z,560.00
2023-03-03T07:22:40.942Z,536.00
2023-03-03T07:23:40.909Z,552.00
2023-03-03T07:24:40.890Z,552.00
2023-03-03T07:25:40.906Z,604.00
2023-03-03T07:26:40.861Z,592.00
2023-03-03T07:27:40.881Z,644.00
2023-03-03T07:28:40.850Z,668.00
2023-03-03T07:29:40.838Z,668.00
2023-03-03T07:30:40.852Z,672.00
2023-03-03T07:31:41.863Z,652.00
2023-03-03T07:32:40.800Z,652.00
2023-03-03T07:33:40.915Z,692.00
2023-03-03T07:34:40.807Z,712.00
2023-03-03T07:35:40.824Z,728.00
2023-03-03T07:36:40.781Z,752.00
2023-03-03T07:37:40.869Z,760.00
2023-03-03T07:38:40.760Z,780.00
2023-03-03T07:39:40.856Z,824.00
2023-03-03T07:40:40.872Z,820.00
2023-03-03T07:41:41.661Z,844.00
2023-03-03T07:42:40.965Z,856.00
2023-03-03T07:43:40.686Z,860.00
2023-03-03T07:44:40.690Z,832.00
2023-03-03T07:45:40.779Z,832.00
2023-03-03T07:46:40.658Z,800.00
2023-03-03T07:47:40.964Z,804.00
2023-03-03T07:48:40.623Z,836.00
2023-03-03T07:49:40.900Z,816.00
2023-03-03T07:50:40.604Z,812.00
2023-03-03T07:51:40.617Z,816.00
2023-03-03T07:52:41.632Z,836.00
2023-03-03T07:53:40.572Z,816.00
2023-03-03T07:54:40.619Z,828.00
2023-03-03T07:55:40.565Z,852.00
2023-03-03T07:56:40.542Z,840.00
2023-03-03T07:57:40.527Z,840.00
2023-03-03T07:58:40.517Z,832.00
2023-03-03T07:59:40.537Z,816.00
2023-03-03T08:00:40.525Z,808.00
2023-03-03T08:01:40.526Z,808.00
2023-03-03T08:02:40.467Z,808.00
2023-03-03T08:03:40.458Z,824.00
2023-03-03T08:04:40.550Z,844.00
2023-03-03T08:05:40.480Z,852.00
2023-03-03T08:06:40.436Z,860.00
2023-03-03T08:07:40.420Z,884.00
2023-03-03T08:08:40.410Z,900.00
2023-03-03T08:09:40.400Z,912.00
2023-03-03T08:10:42.407Z,904.00
2023-03-03T08:11:40.426Z,920.00
2023-03-03T08:12:40.376Z,932.00
2023-03-03T08:13:40.367Z,920.00
2023-03-03T08:14:40.332Z,904.00
2023-03-03T08:15:40.350Z,916.00
2023-03-03T08:16:40.320Z,912.00
2023-03-03T08:17:41.317Z,892.00
2023-03-03T08:18:40.328Z,908.00
2023-03-03T08:19:40.274Z,936.00
2023-03-03T08:20:40.249Z,928.00
2023-03-03T08:21:40.256Z,928.00
2023-03-03T08:22:41.787Z,940.00
2023-03-03T08:23:40.244Z,932.00
2023-03-03T08:24:40.227Z,936.00
2023-03-03T08:25:40.208Z,932.00
2023-03-03T08:26:40.189Z,976.00
2023-03-03T08:27:41.158Z,1032.00
2023-03-03T08:28:40.189Z,1028.00
2023-03-03T08:29:40.167Z,1048.00
2023-03-03T08:30:40.174Z,1064.00
2023-03-03T08:31:41.863Z,1060.00
2023-03-03T08:32:40.264Z,1048.00
2023-03-03T08:33:40.204Z,1032.00
2023-03-03T08:34:40.116Z,1040.00
2023-03-03T08:35:41.094Z,1044.00
2023-03-03T08:36:40.166Z,1044.00
2023-03-03T08:37:40.084Z,1040.00
2023-03-03T08:38:40.046Z,1028.00
2023-03-03T08:39:40.086Z,1052.00
2023-03-03T08:40:40.114Z,1072.00
2023-03-03T08:41:40.102Z,1104.00
2023-03-03T08:42:40.017Z,1120.00
2023-03-03T08:43:40.092Z,1112.00
2023-03-03T08:44:40.015Z,1132.00
2023-03-03T08:45:40.057Z,1100.00
2023-03-03T08:46:40.016Z,1080.00
2023-03-03T08:47:39.963Z,1152.00
2023-03-03T08:48:39.976Z,1204.00
2023-03-03T08:49:40.890Z,1280.00
2023-03-03T08:50:39.928Z,1256.00
2023-03-03T08:51:39.989Z,1248.00
2023-03-03T08:52:41.362Z,1296.00
2023-03-03T08:53:40.649Z,1456.00
2023-03-03T08:54:39.876Z,1356.00
2023-03-03T08:55:40.360Z,1356.00
2023-03-03T08:56:39.868Z,1388.00
2023-03-03T08:57:39.884Z,1360.00
2023-03-03T08:58:45.217Z,1328.00
2023-03-03T08:59:40.839Z,1360.00
2023-03-03T09:00:40.202Z,1340.00
2023-03-03T09:01:39.900Z,1300.00
2023-03-03T09:02:39.820Z,1360.00
2023-03-03T09:03:41.259Z,1448.00
2023-03-03T09:04:39.820Z,1588.00
2023-03-03T09:05:39.769Z,1528.00
2023-03-03T09:06:40.011Z,1528.00
2023-03-03T09:07:39.770Z,1564.00
2023-03-03T09:08:41.213Z,1612.00
2023-03-03T09:09:39.724Z,1604.00
2023-03-03T09:10:40.495Z,1608.00
2023-03-03T09:11:39.752Z,1576.00
2023-03-03T09:12:41.138Z,1556.00
2023-03-03T09:13:41.230Z,1700.00
2023-03-03T09:14:39.741Z,1832.00
2023-03-03T09:15:39.659Z,1876.00
2023-03-03T09:16:39.789Z,1912.00
2023-03-03T09:17:39.637Z,1928.00
2023-03-03T09:18:41.064Z,1956.00
2023-03-03T09:19:39.608Z,2124.00
2023-03-03T09:20:39.658Z,2164.00
2023-03-03T09:21:40.410Z,1944.00
2023-03-03T09:22:39.577Z,1928.00
2023-03-03T09:23:39.761Z,1828.00
2023-03-03T09:24:39.553Z,1840.00
2023-03-03T09:25:41.999Z,1924.00
2023-03-03T09:26:39.542Z,2220.00
2023-03-03T09:27:39.878Z,2104.00
2023-03-03T09:28:39.530Z,2064.00
2023-03-03T09:29:39.513Z,2192.00
2023-03-03T09:30:39.488Z,2136.00
2023-03-03T09:31:39.628Z,2012.00
2023-03-03T09:32:39.574Z,2028.00
2023-03-03T09:33:39.469Z,2304.00
2023-03-03T09:34:39.442Z,2320.00
2023-03-03T09:35:39.462Z,2160.00
2023-03-03T09:36:39.424Z,2056.00
2023-03-03T09:37:39.438Z,1996.00
2023-03-03T09:38:40.200Z,2080.00
2023-03-03T09:39:39.446Z,2084.00
2023-03-03T09:40:39.394Z,2056.00
2023-03-03T09:41:39.377Z,2068.00
2023-03-03T09:42:39.383Z,2156.00
2023-03-03T09:43:40.197Z,2196.00
2023-03-03T09:44:39.368Z,2168.00
2023-03-03T09:45:40.860Z,2184.00
2023-03-03T09:46:39.661Z,2120.00
2023-03-03T09:47:39.328Z,2148.00
2023-03-03T09:48:39.288Z,2156.00
2023-03-03T09:49:39.698Z,2136.00
2023-03-03T09:50:40.218Z,2208.00
2023-03-03T09:51:39.256Z,2316.00
2023-03-03T09:52:39.746Z,2508.00
2023-03-03T09:53:39.612Z,2620.00
2023-03-03T09:54:40.687Z,2608.00
2023-03-03T09:55:40.038Z,2504.00
2023-03-03T09:56:39.217Z,2388.00
2023-03-03T09:57:39.258Z,2492.00
2023-03-03T09:58:39.755Z,2460.00
2023-03-03T09:59:40.732Z,2512.00
2023-03-03T10:00:39.682Z,2448.00
2023-03-03T10:01:40.605Z,2420.00
2023-03-03T10:02:40.653Z,2544.00
2023-03-03T10:03:41.179Z,2488.00
2023-03-03T10:04:39.139Z,2528.00
2023-03-03T10:05:39.213Z,2504.00
2023-03-03T10:06:40.550Z,2372.00
2023-03-03T10:07:39.090Z,2312.00
2023-03-03T10:08:39.528Z,2376.00
2023-03-03T10:09:39.132Z,2400.00
2023-03-03T10:10:39.060Z,2448.00
2023-03-03T10:11:39.069Z,2360.00
2023-03-03T10:12:39.053Z,2252.00
2023-03-03T10:13:39.366Z,2296.00
2023-03-03T10:14:39.009Z,2304.00
2023-03-03T10:15:39.021Z,2252.00
2023-03-03T10:16:39.018Z,2268.00
2023-03-03T10:17:39.030Z,2288.00
2023-03-03T10:18:38.944Z,2224.00
2023-03-03T10:19:38.973Z,2240.00
2023-03-03T10:20:49.647Z,2260.00
2023-03-03T10:21:39.938Z,2472.00
2023-03-03T10:22:39.153Z,2656.00
2023-03-03T10:23:38.894Z,2680.00
2023-03-03T10:24:38.910Z,2764.00
2023-03-03T10:25:38.880Z,2852.00
2023-03-03T10:26:45.151Z,2764.00
2023-03-03T10:27:39.881Z,2636.00
2023-03-03T10:28:38.844Z,2600.00
2023-03-03T10:29:38.867Z,2552.00
2023-03-03T10:30:44.295Z,2468.00
2023-03-03T10:31:39.866Z,2444.00
2023-03-03T10:32:38.951Z,2440.00
2023-03-03T10:33:38.987Z,2360.00
2023-03-03T10:34:38.779Z,2296.00
2023-03-03T10:35:38.802Z,2288.00
2023-03-03T10:36:38.918Z,2308.00
2023-03-03T10:37:38.745Z,2348.00
2023-03-03T10:38:38.754Z,2376.00
2023-03-03T10:39:38.723Z,2416.00
2023-03-03T10:40:38.710Z,2360.00
2023-03-03T10:41:38.690Z,2316.00
2023-03-03T10:42:38.709Z,2468.00
2023-03-03T10:43:38.689Z,2516.00
2023-03-03T10:44:38.669Z,2588.00
2023-03-03T10:45:38.697Z,2680.00
2023-03-03T10:46:38.669Z,2744.00
2023-03-03T10:47:38.656Z,2972.00
2023-03-03T10:48:39.721Z,3088.00
2023-03-03T10:49:38.906Z,2988.00
2023-03-03T10:50:39.458Z,3076.00
2023-03-03T10:51:38.580Z,3164.00
2023-03-03T10:52:38.618Z,3072.00
2023-03-03T10:53:38.551Z,2976.00
2023-03-03T10:54:38.553Z,2960.00
2023-03-03T10:55:40.638Z,3040.00
2023-03-03T10:56:52.018Z,3048.00
2023-03-03T10:57:39.532Z,3052.00
2023-03-03T10:58:38.601Z,3164.00
2023-03-03T10:59:38.490Z,3208.00
2023-03-03T11:00:38.504Z,3280.00
2023-03-03T11:01:38.522Z,3420.00
2023-03-03T11:02:38.495Z,3392.00
2023-03-03T11:03:38.452Z,3216.00
2023-03-03T11:04:38.481Z,3404.00
2023-03-03T11:05:38.429Z,3644.00
2023-03-03T11:06:38.420Z,3916.00
2023-03-03T11:07:38.405Z,4284.00
2023-03-03T11:08:38.442Z,4100.00
2023-03-03T11:09:38.384Z,3852.00
2023-03-03T11:10:38.382Z,3604.00
2023-03-03T11:11:38.370Z,3556.00
2023-03-03T11:12:38.364Z,3732.00
2023-03-03T11:13:38.370Z,3612.00
2023-03-03T11:14:38.722Z,3452.00
2023-03-03T11:15:38.532Z,3228.00
2023-03-03T11:16:38.874Z,3068.00
2023-03-03T11:17:39.754Z,3048.00
2023-03-03T11:18:38.783Z,3116.00
2023-03-03T11:19:38.347Z,3156.00
2023-03-03T11:20:39.057Z,3180.00
2023-03-03T11:21:39.709Z,3224.00
2023-03-03T11:22:38.662Z,3268.00
2023-03-03T11:23:39.699Z,3384.00
2023-03-03T11:24:38.242Z,3328.00
2023-03-03T11:25:38.313Z,3244.00
2023-03-03T11:26:38.530Z,3248.00
2023-03-03T11:27:38.193Z,3220.00
2023-03-03T11:28:38.185Z,3160.00
2023-03-03T11:29:38.222Z,3120.00
2023-03-03T11:30:38.215Z,3168.00
2023-03-03T11:31:38.189Z,3420.00
2023-03-03T11:32:38.142Z,3668.00
2023-03-03T11:33:38.128Z,3796.00
2023-03-03T11:34:38.118Z,3760.00
2023-03-03T11:35:38.308Z,3948.00
2023-03-03T11:36:38.088Z,4128.00
2023-03-03T11:37:38.883Z,3972.00
2023-03-03T11:38:38.078Z,3608.00
2023-03-03T11:39:38.619Z,3508.00
2023-03-03T11:40:38.387Z,3548.00
2023-03-03T11:41:38.075Z,3708.00
2023-03-03T11:42:38.039Z,4072.00
2023-03-03T11:43:38.064Z,4276.00
2023-03-03T11:44:38.145Z,4228.00
2023-03-03T11:45:38.012Z,3932.00
2023-03-03T11:46:39.483Z,3796.00
2023-03-03T11:47:38.061Z,3752.00
2023-03-03T11:48:37.973Z,3816.00
2023-03-03T11:49:37.953Z,3848.00
2023-03-03T11:50:37.972Z,3956.00
2023-03-03T11:51:39.524Z,4176.00
2023-03-03T11:52:37.925Z,4328.00
2023-03-03T11:53:37.903Z,4392.00
2023-03-03T11:54:37.893Z,4456.00
2023-03-03T11:55:39.372Z,4564.00
2023-03-03T11:56:37.964Z,4380.00
2023-03-03T11:57:37.861Z,4456.00
2023-03-03T11:58:37.882Z,4608.00
2023-03-03T11:59:37.981Z,4756.00
2023-03-03T12:00:39.284Z,4776.00
2023-03-03T12:01:37.832Z,4752.00
2023-03-03T12:02:39.293Z,4796.00
2023-03-03T12:03:37.790Z,4900.00
2023-03-03T12:04:38.009Z,4656.00
2023-03-03T12:05:38.020Z,4484.00
2023-03-03T12:06:37.755Z,4740.00
2023-03-03T12:07:38.019Z,5124.00
2023-03-03T12:08:37.737Z,5260.00
2023-03-03T12:09:37.741Z,5036.00
2023-03-03T12:10:38.024Z,4588.00
2023-03-03T12:11:38.494Z,4440.00
2023-03-03T12:12:37.727Z,4588.00
2023-03-03T12:13:38.017Z,4744.00
2023-03-03T12:14:37.671Z,4768.00
2023-03-03T12:15:37.703Z,4792.00
2023-03-03T12:16:37.709Z,4488.00
2023-03-03T12:17:37.661Z,4168.00
2023-03-03T12:18:37.627Z,4460.00
2023-03-03T12:19:37.820Z,4896.00
2023-03-03T12:20:37.596Z,4780.00
2023-03-03T12:21:37.649Z,4568.00
2023-03-03T12:22:37.716Z,4684.00
2023-03-03T12:23:38.518Z,4624.00
2023-03-03T12:24:37.564Z,4136.00
2023-03-03T12:25:37.537Z,3836.00
2023-03-03T12:26:37.534Z,3888.00
2023-03-03T12:27:37.568Z,4244.00
2023-03-03T12:28:37.534Z,4940.00
2023-03-03T12:29:37.501Z,5264.00
2023-03-03T12:30:37.496Z,5192.00
2023-03-03T12:31:37.500Z,5008.00
2023-03-03T12:32:37.484Z,4852.00
2023-03-03T12:33:37.505Z,4728.00
2023-03-03T12:34:37.467Z,4388.00
2023-03-03T12:35:37.472Z,4232.00
2023-03-03T12:36:37.482Z,3912.00
2023-03-03T12:37:37.411Z,3488.00
2023-03-03T12:38:37.407Z,3348.00
2023-03-03T12:39:38.278Z,4056.00
2023-03-03T12:40:37.377Z,4596.00
2023-03-03T12:41:37.363Z,4288.00
2023-03-03T12:42:37.358Z,3836.00
2023-03-03T12:43:37.366Z,3944.00
2023-03-03T12:44:37.346Z,4248.00